Time;durP1;ratioP1;P1;durP2;ratioP2;P2;SDS_P1;SDS_P2;PMS_P1;PMS_P2;Temp;Humidity;BMP_temperature;BMP_pressure;BME280_temperature;BME280_humidity;BME280_pressure;Samples;Min_cycle;Max_cycle;Signal;HPM_P1;HPM_P2
2021/11/01 00:01:25;;;;;;;2.95;0.47;;;11.80;76.20;;;;;;5078911;28;20107;-69
2021/11/01 00:03:51;;;;;;;2.20;0.50;;;11.80;76.00;;;;;;5079643;28;20485;-70
2021/11/01 00:06:16;;;;;;;2.75;0.50;;;11.70;76.00;;;;;;5079285;28;20045;-70
2021/11/01 00:08:42;;;;;;;2.90;0.40;;;11.70;76.40;;;;;;5079460;28;20028;-70
2021/11/01 00:11:08;;;;;;;1.15;0.43;;;11.70;76.40;;;;;;5075528;28;20031;-70
2021/11/01 00:13:33;;;;;;;2.05;0.50;;;11.70;76.10;;;;;;5076304;28;20036;-69
2021/11/01 00:15:59;;;;;;;1.73;0.30;;;11.70;76.70;;;;;;5079249;28;20025;-70
2021/11/01 00:18:25;;;;;;;2.20;0.30;;;11.70;76.00;;;;;;5078791;28;20033;-70
2021/11/01 00:20:50;;;;;;;3.22;0.38;;;11.70;75.70;;;;;;5078450;28;20048;-69
2021/11/01 00:23:16;;;;;;;4.05;0.47;;;11.70;75.90;;;;;;5077530;28;20025;-70
2021/11/01 00:25:42;;;;;;;5.55;0.40;;;11.60;76.50;;;;;;5089405;28;20386;-70
2021/11/01 00:28:10;;;;;;;1.58;0.40;;;11.70;76.50;;;;;;5078274;28;20381;-70
2021/11/01 00:30:36;;;;;;;1.90;0.35;;;11.60;76.30;;;;;;5078504;28;20047;-70
2021/11/01 00:33:02;;;;;;;1.02;0.40;;;11.60;76.50;;;;;;5078445;28;20481;-70
2021/11/01 00:35:27;;;;;;;0.98;0.40;;;11.60;76.30;;;;;;5078062;28;20138;-70
2021/11/01 00:37:53;;;;;;;3.17;0.50;;;11.60;76.50;;;;;;5074317;28;20028;-70
2021/11/01 00:40:19;;;;;;;3.60;0.57;;;11.60;76.30;;;;;;5077819;28;20025;-69
2021/11/01 00:42:45;;;;;;;1.10;0.35;;;11.60;76.00;;;;;;5078064;28;20087;-70
2021/11/01 00:45:11;;;;;;;2.70;0.40;;;11.50;76.20;;;;;;5078090;28;20107;-70
2021/11/01 00:47:37;;;;;;;4.25;0.63;;;11.50;76.80;;;;;;5078668;28;20038;-70
2021/11/01 00:50:04;;;;;;;3.28;0.50;;;11.50;76.80;;;;;;5074314;28;20412;-70
2021/11/01 00:52:30;;;;;;;3.05;0.50;;;11.50;76.80;;;;;;5076244;28;20032;-70
2021/11/01 00:54:59;;;;;;;1.60;0.40;;;11.50;76.70;;;;;;5077251;28;20021;-70
2021/11/01 00:57:26;;;;;;;2.60;0.40;;;11.50;76.50;;;;;;5078219;28;20028;-70
2021/11/01 00:59:51;;;;;;;1.17;0.40;;;11.60;76.80;;;;;;5078011;28;20029;-70
2021/11/01 01:02:17;;;;;;;1.75;0.30;;;11.50;76.60;;;;;;5074814;28;20039;-69
2021/11/01 01:04:42;;;;;;;2.33;0.40;;;11.60;76.50;;;;;;5089717;28;20059;-70
2021/11/01 01:07:08;;;;;;;1.77;0.40;;;11.50;76.30;;;;;;5077176;28;20036;-70
2021/11/01 01:09:34;;;;;;;0.85;0.28;;;11.50;76.70;;;;;;5078153;28;20032;-70
2021/11/01 01:12:01;;;;;;;3.05;0.40;;;11.50;76.80;;;;;;5077715;28;20040;-70
2021/11/01 01:14:29;;;;;;;1.42;0.43;;;11.40;76.50;;;;;;5059562;28;20083;-69
2021/11/01 01:16:56;;;;;;;3.20;0.40;;;11.40;76.90;;;;;;5073034;28;20564;-70
2021/11/01 01:19:24;;;;;;;1.75;0.40;;;11.40;77.30;;;;;;5088386;28;20055;-70
2021/11/01 01:24:34;;;;;;;2.65;0.70;;;11.30;76.90;;;;;;5084465;28;20081;-70
2021/11/01 01:26:59;;;;;;;2.55;0.50;;;11.30;77.10;;;;;;5084802;28;20033;-70
2021/11/01 01:29:25;;;;;;;2.65;0.52;;;11.30;77.40;;;;;;5076783;28;20404;-69
2021/11/01 01:31:51;;;;;;;4.97;0.93;;;11.20;77.60;;;;;;5072870;28;20024;-70
2021/11/01 01:34:18;;;;;;;3.80;0.80;;;11.20;77.70;;;;;;5077071;28;20031;-69
2021/11/01 01:36:45;;;;;;;1.73;0.40;;;11.20;77.80;;;;;;5077306;28;20485;-69
2021/11/01 01:39:11;;;;;;;2.03;0.50;;;11.10;77.60;;;;;;5077058;28;20025;-69
2021/11/01 01:41:43;;;;;;;4.38;0.52;;;11.10;78.00;;;;;;5077783;28;20043;-69
2021/11/01 01:44:09;;;;;;;2.45;0.45;;;11.10;78.10;;;;;;5074499;28;20410;-69
2021/11/01 01:46:35;;;;;;;4.15;0.40;;;11.10;78.40;;;;;;5074300;28;20043;-69
2021/11/01 01:49:00;;;;;;;3.90;0.40;;;11.10;78.20;;;;;;5076937;28;20032;-69
2021/11/01 01:51:28;;;;;;;3.40;0.60;;;11.10;78.10;;;;;;5077338;28;20033;-69
2021/11/01 01:53:55;;;;;;;3.55;0.45;;;11.00;78.70;;;;;;5076618;28;20025;-69
2021/11/01 01:56:22;;;;;;;3.72;0.40;;;11.00;78.70;;;;;;5076042;28;20028;-69
2021/11/01 01:58:52;;;;;;;1.38;0.55;;;11.00;78.60;;;;;;5073115;28;20044;-69
2021/11/01 02:01:18;;;;;;;2.10;0.50;;;10.90;78.30;;;;;;5076011;28;20063;-69
2021/11/01 02:03:50;;;;;;;2.08;0.60;;;10.90;78.70;;;;;;5077312;28;20536;-69
2021/11/01 02:06:31;;;;;;;4.45;0.80;;;10.90;78.90;;;;;;5076422;28;20074;-69
2021/11/01 02:09:15;;;;;;;3.13;0.68;;;10.90;79.10;;;;;;5076714;28;20043;-69
2021/11/01 02:12:02;;;;;;;5.07;0.55;;;10.80;79.30;;;;;;5076813;28;20047;-69
2021/11/01 02:14:41;;;;;;;3.00;0.50;;;10.80;79.20;;;;;;5080989;28;20046;-70
2021/11/01 02:17:07;;;;;;;1.88;0.50;;;10.80;79.70;;;;;;5075775;28;20036;-70
2021/11/01 02:19:45;;;;;;;2.38;0.40;;;10.80;79.70;;;;;;5074304;28;20020;-69
2021/11/01 02:22:16;;;;;;;3.05;0.60;;;10.80;79.90;;;;;;5076108;28;20103;-69
2021/11/01 02:25:11;;;;;;;1.42;0.40;;;10.80;80.00;;;;;;5083998;28;20056;-70
2021/11/01 02:27:39;;;;;;;2.72;0.50;;;10.80;79.90;;;;;;5078487;28;20035;-69
2021/11/01 02:30:10;;;;;;;4.20;0.55;;;10.80;80.10;;;;;;5076233;28;20162;-69
2021/11/01 02:32:39;;;;;;;2.28;0.40;;;10.70;80.50;;;;;;5076826;28;20045;-69
2021/11/01 02:35:06;;;;;;;1.60;0.35;;;10.70;80.30;;;;;;5073127;28;20547;-69
2021/11/01 02:37:32;;;;;;;2.80;0.57;;;10.80;80.70;;;;;;5074109;28;20024;-69
2021/11/01 02:39:58;;;;;;;3.22;0.57;;;10.70;80.70;;;;;;5083841;28;20028;-69
2021/11/01 02:42:27;;;;;;;4.22;0.70;;;10.80;80.50;;;;;;5079925;28;20631;-69
2021/11/01 02:45:04;;;;;;;3.40;0.40;;;10.70;80.00;;;;;;5076301;28;20025;-69
2021/11/01 02:47:31;;;;;;;1.80;0.50;;;10.80;79.80;;;;;;5076376;28;20181;-69
2021/11/01 02:49:59;;;;;;;3.33;0.52;;;10.80;80.60;;;;;;5072001;28;20103;-69
2021/11/01 02:52:26;;;;;;;5.35;0.68;;;10.80;80.30;;;;;;5075046;28;20039;-69
2021/11/01 02:54:52;;;;;;;2.25;0.40;;;10.80;80.50;;;;;;5085321;28;20025;-69
2021/11/01 02:57:18;;;;;;;2.40;0.43;;;10.80;80.30;;;;;;5080578;28;20032;-69
2021/11/01 02:59:44;;;;;;;3.67;0.60;;;10.80;80.20;;;;;;5075310;28;20035;-69
2021/11/01 03:02:10;;;;;;;3.67;0.55;;;10.70;80.40;;;;;;5088088;28;20039;-69
2021/11/01 03:04:36;;;;;;;3.50;0.47;;;10.70;80.30;;;;;;5055419;28;20107;-69
2021/11/01 03:07:02;;;;;;;6.55;0.70;;;10.80;80.30;;;;;;5076282;28;20116;-69
2021/11/01 03:09:34;;;;;;;2.28;0.32;;;10.80;80.20;;;;;;5076169;28;20166;-69
2021/11/01 03:12:02;;;;;;;2.78;0.73;;;10.80;80.40;;;;;;5075960;28;20507;-69
2021/11/01 03:14:30;;;;;;;4.63;0.65;;;10.70;80.50;;;;;;5075598;28;20103;-69
2021/11/01 03:17:00;;;;;;;3.72;0.70;;;10.70;80.30;;;;;;5071127;28;20408;-69
2021/11/01 03:19:29;;;;;;;5.90;0.63;;;10.70;80.40;;;;;;5077333;28;20024;-69
2021/11/01 03:21:57;;;;;;;4.63;0.50;;;10.70;80.40;;;;;;5074534;28;20074;-69
2021/11/01 03:24:23;;;;;;;4.78;0.70;;;10.70;80.60;;;;;;5084765;28;20099;-69
2021/11/01 03:26:52;;;;;;;3.58;0.60;;;10.70;80.80;;;;;;5088912;28;20048;-69
2021/11/01 03:29:20;;;;;;;5.10;0.70;;;10.70;80.60;;;;;;5078079;28;20024;-69
2021/11/01 03:31:47;;;;;;;5.82;0.70;;;10.70;80.70;;;;;;5076170;28;20085;-69
2021/11/01 03:34:14;;;;;;;2.95;0.65;;;10.70;80.50;;;;;;5078964;28;20426;-69
2021/11/01 03:36:40;;;;;;;4.20;0.85;;;10.80;80.70;;;;;;5079907;28;20090;-69
2021/11/01 03:39:10;;;;;;;7.70;0.80;;;10.80;80.80;;;;;;5079615;28;20025;-69
2021/11/01 03:41:36;;;;;;;3.97;0.75;;;10.80;80.60;;;;;;5079369;28;20053;-69
2021/11/01 03:44:06;;;;;;;3.40;0.93;;;10.80;80.50;;;;;;5075511;28;20059;-69
2021/11/01 03:46:40;;;;;;;2.70;0.50;;;10.80;80.40;;;;;;5077046;28;20078;-69
2021/11/01 03:49:08;;;;;;;6.00;0.70;;;10.80;80.30;;;;;;5079025;28;20455;-69
2021/11/01 03:51:51;;;;;;;3.30;0.80;;;10.80;80.40;;;;;;5079203;28;20105;-69
2021/11/01 03:54:21;;;;;;;2.05;0.50;;;10.80;80.20;;;;;;5079352;28;20032;-69
2021/11/01 03:56:51;;;;;;;6.55;0.80;;;10.80;80.40;;;;;;5078881;28;20021;-69
2021/11/01 03:59:17;;;;;;;4.95;1.20;;;10.80;80.40;;;;;;5091125;28;20035;-69
2021/11/01 04:01:45;;;;;;;5.18;1.10;;;10.80;80.30;;;;;;5076061;28;20594;-69
2021/11/01 04:04:11;;;;;;;3.83;0.73;;;10.80;80.40;;;;;;5078438;28;20452;-69
2021/11/01 04:06:39;;;;;;;3.38;0.50;;;10.80;80.30;;;;;;5078783;28;20564;-69
2021/11/01 04:09:06;;;;;;;6.30;0.90;;;10.80;80.50;;;;;;5079309;28;20020;-69
2021/11/01 04:11:32;;;;;;;3.97;0.70;;;10.80;80.50;;;;;;5078552;28;20301;-69
2021/11/01 04:14:06;;;;;;;5.18;1.15;;;10.80;80.40;;;;;;5074914;28;20024;-69
2021/11/01 04:16:42;;;;;;;4.25;0.50;;;10.70;81.60;;;;;;5077434;28;20033;-69
2021/11/01 04:21:55;;;;;;;4.00;0.52;;;10.70;80.30;;;;;;5051209;28;20052;-69
2021/11/01 04:24:23;;;;;;;4.18;0.63;;;10.70;80.60;;;;;;5048116;28;20075;-69
2021/11/01 04:26:49;;;;;;;4.18;0.50;;;10.60;80.00;;;;;;5047267;28;20092;-69
2021/11/01 04:29:15;;;;;;;4.10;0.57;;;10.60;80.30;;;;;;5038084;28;20029;-69
2021/11/01 04:31:45;;;;;;;3.53;0.40;;;10.60;80.70;;;;;;5051166;28;20056;-69
2021/11/01 04:34:18;;;;;;;6.15;0.77;;;10.60;80.40;;;;;;5038108;28;20419;-69
2021/11/01 04:36:44;;;;;;;;;;;10.60;80.50;;;;;;5033901;28;20037;-69
2021/11/01 04:39:13;;;;;;;3.90;0.90;;;10.60;80.00;;;;;;5045454;28;19909;-69
2021/11/01 04:52:58;;;;;;;;;;;10.60;80.50;;;;;;5049310;28;20113;-69
2021/11/01 04:55:24;;;;;;;2.60;0.50;;;10.60;80.00;;;;;;5047414;28;19967;-69
2021/11/01 04:57:50;;;;;;;4.28;0.50;;;10.60;80.70;;;;;;5040217;28;20198;-69
2021/11/01 05:00:16;;;;;;;2.00;0.50;;;10.60;80.60;;;;;;5078700;28;20036;-69
2021/11/01 05:02:47;;;;;;;2.83;0.60;;;10.60;80.60;;;;;;5078407;28;20067;-69
2021/11/01 05:05:13;;;;;;;2.20;0.47;;;10.60;80.70;;;;;;5076349;28;20060;-69
2021/11/01 05:07:38;;;;;;;3.80;0.60;;;10.60;80.30;;;;;;5076151;28;20036;-69
2021/11/01 05:10:23;;;;;;;4.25;0.47;;;10.60;80.30;;;;;;5077421;28;20038;-69
2021/11/01 05:12:50;;;;;;;2.97;0.38;;;10.60;80.60;;;;;;5078269;28;20068;-69
2021/11/01 05:15:26;;;;;;;3.72;0.77;;;10.60;80.70;;;;;;5078227;28;20536;-69
2021/11/01 05:17:58;;;;;;;4.82;0.52;;;10.50;80.60;;;;;;5078111;28;20017;-69
2021/11/01 05:20:35;;;;;;;2.60;0.60;;;10.50;80.60;;;;;;5077766;28;20064;-70
2021/11/01 05:25:44;;;;;;;3.25;0.68;;;10.50;80.30;;;;;;5090106;28;20036;-69
2021/11/01 05:28:25;;;;;;;5.03;0.82;;;10.50;80.80;;;;;;5077645;28;20024;-69
2021/11/01 05:30:57;;;;;;;4.63;0.70;;;10.50;80.60;;;;;;5086986;28;20028;-69
2021/11/01 05:33:52;;;;;;;6.53;0.80;;;10.50;80.80;;;;;;5081676;28;20050;-69
2021/11/01 05:36:09;;;;;;;3.53;0.50;;;10.60;81.00;;;;;;5077705;28;20130;-69
2021/11/01 05:38:35;;;;;;;4.63;0.70;;;10.60;80.90;;;;;;5077401;28;20478;-69
2021/11/01 05:41:02;;;;;;;4.18;0.60;;;10.70;81.20;;;;;;5073101;28;20033;-69
2021/11/01 05:43:27;;;;;;;7.05;1.27;;;10.70;80.60;;;;;;5076182;28;20056;-69
2021/11/01 05:45:53;;;;;;;4.50;0.65;;;10.70;81.10;;;;;;5077770;28;20068;-69
2021/11/01 05:48:18;;;;;;;4.53;0.90;;;10.80;80.60;;;;;;5077648;28;20090;-69
2021/11/01 05:50:45;;;;;;;3.72;0.68;;;10.70;80.60;;;;;;5077638;28;20039;-69
2021/11/01 05:53:13;;;;;;;4.60;0.77;;;10.70;80.60;;;;;;5074769;28;20464;-69
2021/11/01 05:58:56;;;;;;;5.13;0.70;;;10.60;80.80;;;;;;5031340;28;20060;-69
2021/11/01 06:09:51;;;;;;;3.17;0.60;;;10.50;81.20;;;;;;4974928;28;20527;-69
2021/11/01 06:15:02;;;;;;;6.50;0.57;;;10.40;81.30;;;;;;4974756;28;20061;-69
2021/11/01 06:17:28;;;;;;;2.35;0.73;;;10.40;81.30;;;;;;4974851;28;20031;-69
2021/11/01 06:19:53;;;;;;;3.83;0.57;;;10.40;81.20;;;;;;4970544;28;20058;-69
2021/11/01 06:22:19;;;;;;;4.88;0.70;;;10.40;81.30;;;;;;4975398;28;20045;-69
2021/11/01 06:27:14;;;;;;;3.20;0.80;;;10.40;81.30;;;;;;4974730;28;20039;-69
2021/11/01 06:40:29;;;;;;;1.63;0.40;;;10.30;81.30;;;;;;5076850;28;20031;-69
2021/11/01 06:45:46;;;;;;;3.60;0.60;;;10.30;81.60;;;;;;5076912;28;20039;-69
2021/11/01 07:17:51;;;;;;;2.90;0.70;;;10.70;80.80;;;;;;5012993;28;20030;-70
2021/11/01 08:20:38;;;;;;;3.97;0.70;;;13.80;76.90;;;;;;5079213;28;20479;-69
2021/11/01 08:29:13;;;;;;;2.38;0.60;;;14.60;76.70;;;;;;5090468;28;20020;-69
2021/11/01 08:49:42;;;;;;;4.95;0.88;;;17.30;67.60;;;;;;5078478;28;20029;-69
2021/11/01 09:23:48;;;;;;;4.35;0.60;;;13.60;73.30;;;;;;5012243;28;20033;-69
2021/11/01 09:26:34;;;;;;;4.28;0.73;;;13.60;73.40;;;;;;5010166;28;20532;-69
2021/11/01 09:37:25;;;;;;;5.38;0.90;;;17.90;64.40;;;;;;5013812;28;20081;-70
2021/11/01 09:42:44;;;;;;;7.28;0.95;;;20.20;64.60;;;;;;5011743;28;20085;-70
2021/11/01 09:45:10;;;;;;;5.00;1.13;;;21.00;63.10;;;;;;5055047;28;20072;-70
2021/11/01 09:47:37;;;;;;;3.55;0.90;;;21.80;58.20;;;;;;5077716;28;20058;-70
2021/11/01 09:50:04;;;;;;;2.85;0.82;;;21.00;56.80;;;;;;5074012;28;20028;-69
2021/11/01 09:52:31;;;;;;;3.40;1.20;;;19.70;54.00;;;;;;5075736;28;20482;-69
2021/11/01 09:54:58;;;;;;;6.10;1.08;;;18.30;57.30;;;;;;5077820;28;20025;-68
2021/11/01 09:57:35;;;;;;;5.72;0.80;;;17.20;59.80;;;;;;5077486;28;20169;-68
2021/11/01 10:00:00;;;;;;;2.08;0.60;;;16.20;61.90;;;;;;5077074;28;20016;-70
2021/11/01 10:02:26;;;;;;;5.55;1.00;;;15.70;65.30;;;;;;5077084;28;20435;-67
2021/11/01 10:04:53;;;;;;;3.17;0.55;;;15.30;65.50;;;;;;5073229;28;20461;-70
2021/11/01 10:09:52;;;;;;;3.40;0.82;;;14.80;67.90;;;;;;5085473;28;20034;-69
2021/11/01 10:12:34;;;;;;;4.07;0.73;;;14.50;68.40;;;;;;5082082;28;20538;-69
2021/11/01 10:18:08;;;;;;;2.10;0.65;;;14.20;70.10;;;;;;5077420;28;20039;-69
2021/11/01 10:20:45;;;;;;;4.75;1.13;;;14.10;71.20;;;;;;5077160;28;20039;-69
2021/11/01 10:23:16;;;;;;;5.75;0.80;;;14.80;74.80;;;;;;5074734;28;20040;-70
2021/11/01 10:25:43;;;;;;;3.53;0.82;;;15.80;74.00;;;;;;5088307;28;20107;-69
2021/11/01 10:28:09;;;;;;;2.83;0.80;;;16.90;69.00;;;;;;5075955;28;20060;-69
2021/11/01 10:30:36;;;;;;;4.50;1.10;;;17.10;68.30;;;;;;5077152;28;20067;-69
2021/11/01 10:33:06;;;;;;;2.95;0.90;;;18.40;67.80;;;;;;5076902;28;20033;-69
2021/11/01 10:35:35;;;;;;;4.15;1.15;;;19.50;69.20;;;;;;5077086;28;20035;-70
2021/11/01 10:41:00;;;;;;;3.20;1.00;;;23.20;60.80;;;;;;5073635;28;20017;-70
2021/11/01 11:13:34;;;;;;;1.65;0.65;;;29.50;35.10;;;;;;5005975;28;20033;-70
2021/11/01 11:16:02;;;;;;;1.85;0.70;;;29.20;34.30;;;;;;4997514;28;20034;-70
2021/11/01 11:50:28;;;;;;;2.25;0.98;;;28.00;36.60;;;;;;5079312;28;20485;-71
2021/11/01 11:52:54;;;;;;;2.97;0.70;;;29.00;33.90;;;;;;5075610;28;20038;-71
2021/11/01 11:55:29;;;;;;;2.63;0.65;;;29.40;32.20;;;;;;5079115;28;20137;-71
2021/11/01 11:57:57;;;;;;;1.38;0.50;;;29.00;32.00;;;;;;5080026;28;20028;-71
2021/11/01 12:00:26;;;;;;;1.83;0.45;;;29.20;32.30;;;;;;5079667;28;20032;-71
2021/11/01 12:02:54;;;;;;;1.45;0.50;;;29.20;31.10;;;;;;5079760;28;20028;-71
2021/11/01 12:05:43;;;;;;;3.65;2.08;;;28.80;31.00;;;;;;5078552;28;20051;-71
2021/11/01 12:08:34;;;;;;;1.15;0.60;;;27.90;31.70;;;;;;5077118;28;20121;-71
2021/11/01 12:19:02;;;;;;;3.17;0.50;;;23.60;36.40;;;;;;5088954;28;20031;-70
2021/11/01 12:21:28;;;;;;;2.03;0.30;;;23.30;37.20;;;;;;5082727;28;20024;-70
2021/11/01 12:23:54;;;;;;;1.80;0.40;;;23.10;37.90;;;;;;5079978;28;20036;-70
2021/11/01 12:26:23;;;;;;;3.92;0.50;;;22.80;38.10;;;;;;5090913;28;20047;-70
2021/11/01 12:28:54;;;;;;;0.90;0.40;;;22.50;39.50;;;;;;5075781;28;20111;-70
2021/11/01 12:31:21;;;;;;;1.00;0.30;;;22.30;39.40;;;;;;5060793;28;20389;-70
2021/11/01 12:36:24;;;;;;;1.95;0.30;;;22.00;40.40;;;;;;5079078;28;20036;-70
2021/11/01 12:38:57;;;;;;;2.85;0.57;;;21.70;40.60;;;;;;5078678;28;20043;-70
2021/11/01 12:57:42;;;;;;;0.90;0.30;;;21.00;44.00;;;;;;5078919;28;20115;-70
2021/11/01 13:00:09;;;;;;;0.82;0.30;;;21.00;42.60;;;;;;5078626;28;20036;-70
2021/11/01 13:02:39;;;;;;;1.67;0.30;;;20.60;43.20;;;;;;5078478;28;20032;-70
2021/11/01 13:05:18;;;;;;;0.82;0.40;;;20.20;43.30;;;;;;5075171;28;20036;-70
2021/11/01 13:07:52;;;;;;;2.13;0.47;;;19.80;44.00;;;;;;5075216;28;20036;-70
2021/11/01 13:20:36;;;;;;;1.98;0.50;;;20.30;41.70;;;;;;5078236;28;20028;-70
2021/11/01 13:23:02;;;;;;;0.57;0.30;;;20.20;44.20;;;;;;5075110;28;20048;-69
2021/11/01 13:36:49;;;;;;;1.63;0.40;;;18.40;46.40;;;;;;5078664;28;20059;-69
2021/11/01 13:39:29;;;;;;;1.58;0.57;;;18.50;47.10;;;;;;5077654;28;20031;-69
2021/11/01 13:41:55;;;;;;;2.30;0.45;;;18.40;46.80;;;;;;5077663;28;20051;-69
2021/11/01 13:44:24;;;;;;;2.10;0.80;;;18.30;47.10;;;;;;5056571;28;20037;-69
2021/11/01 13:46:58;;;;;;;0.95;0.40;;;18.20;47.20;;;;;;5089575;28;20170;-69
2021/11/01 13:49:29;;;;;;;2.58;0.50;;;18.10;47.70;;;;;;5088715;28;20039;-70
2021/11/01 13:52:36;;;;;;;2.63;0.43;;;17.90;47.70;;;;;;5077518;28;20048;-69
2021/11/01 13:55:11;;;;;;;2.38;0.50;;;17.80;48.20;;;;;;5087545;28;20020;-69
2021/11/01 13:58:34;;;;;;;2.05;0.55;;;17.60;48.60;;;;;;5079596;28;20033;-70
2021/11/01 14:14:55;;;;;;;1.80;0.50;;;16.50;52.50;;;;;;5077613;28;20503;-69
2021/11/01 14:28:27;;;;;;;1.90;0.80;;;15.60;57.60;;;;;;4995131;28;20529;-68
2021/11/01 14:34:09;;;;;;;2.13;0.60;;;15.70;58.20;;;;;;4993292;28;20056;-69
2021/11/01 14:58:59;;;;;;;2.20;0.80;;;15.50;58.40;;;;;;5012313;28;20038;-70
2021/11/01 15:05:18;;;;;;;3.15;1.30;;;15.50;58.30;;;;;;5016870;28;20042;-70
2021/11/01 15:15:20;;;;;;;3.42;0.90;;;15.40;58.30;;;;;;5019293;28;20083;-70
2021/11/01 15:18:36;;;;;;;1.63;0.70;;;15.30;58.70;;;;;;5018464;28;20022;-71
2021/11/01 15:23:14;;;;;;;1.50;0.75;;;15.20;58.80;;;;;;5017593;28;20430;-68
2021/11/01 16:17:03;;;;;;;2.10;0.60;;;14.30;61.70;;;;;;5090208;28;20165;-70
2021/11/01 16:19:28;;;;;;;5.53;0.95;;;14.20;62.30;;;;;;5078205;28;20041;-72
2021/11/01 16:21:55;;;;;;;1.20;0.40;;;14.10;62.30;;;;;;5088269;28;20035;-71
2021/11/01 16:24:21;;;;;;;3.65;0.90;;;14.10;62.20;;;;;;5088310;28;20028;-73
2021/11/01 16:26:47;;;;;;;1.65;0.50;;;14.10;62.50;;;;;;5087965;28;20039;-73
2021/11/01 16:29:17;;;;;;;2.67;1.20;;;14.10;62.90;;;;;;5058766;28;20492;-77
2021/11/01 16:34:19;;;;;;;4.53;1.63;;;14.00;63.40;;;;;;5078150;28;20025;-71
2021/11/01 16:39:18;;;;;;;5.50;2.30;;;13.90;63.50;;;;;;5061801;28;20032;-70
2021/11/01 16:41:46;;;;;;;3.90;1.70;;;13.90;63.30;;;;;;5078579;28;20040;-70
2021/11/01 16:44:18;;;;;;;5.15;2.58;;;13.90;63.40;;;;;;5076163;28;20101;-71
2021/11/01 16:46:46;;;;;;;5.30;2.47;;;13.80;63.50;;;;;;5075405;28;20028;-70
2021/11/01 16:49:12;;;;;;;5.85;2.20;;;13.80;63.40;;;;;;5085350;28;20428;-71
2021/11/01 16:51:42;;;;;;;4.35;2.60;;;13.70;63.40;;;;;;5091217;28;20028;-71
2021/11/01 16:54:09;;;;;;;5.13;2.00;;;13.60;63.50;;;;;;5088828;28;20028;-71
2021/11/01 17:02:03;;;;;;;4.88;1.60;;;13.40;64.30;;;;;;5087060;28;20432;-72
2021/11/01 17:04:33;;;;;;;1.95;1.00;;;13.30;64.50;;;;;;5088305;28;20110;-72
2021/11/01 17:07:12;;;;;;;3.90;0.90;;;13.30;64.40;;;;;;5078283;28;20028;-72
2021/11/01 17:29:10;;;;;;;5.00;1.38;;;13.10;65.90;;;;;;5009434;28;20109;-71
2021/11/01 17:35:04;;;;;;;4.90;1.60;;;13.20;65.70;;;;;;4970341;28;20047;-71
2021/11/01 17:38:19;;;;;;;2.90;1.38;;;13.10;64.40;;;;;;4970431;28;20034;-71
2021/11/01 18:41:35;;;;;;;4.70;1.58;;;12.40;68.10;;;;;;5073831;28;20038;-75
2021/11/01 18:44:27;;;;;;;3.60;1.52;;;12.40;67.90;;;;;;5081818;28;20024;-69
2021/11/01 18:52:15;;;;;;;6.47;2.03;;;12.30;69.00;;;;;;5082828;28;20043;-76
2021/11/01 18:54:43;;;;;;;3.42;1.55;;;12.30;68.90;;;;;;5080138;28;20025;-75
2021/11/01 18:57:11;;;;;;;5.25;1.85;;;12.20;68.70;;;;;;5088152;28;20028;-75
2021/11/01 18:59:39;;;;;;;4.35;1.85;;;12.20;68.80;;;;;;5089084;28;20042;-74
2021/11/01 19:04:56;;;;;;;3.67;1.40;;;12.10;70.00;;;;;;5093373;28;20052;-77
2021/11/01 19:07:57;;;;;;;6.85;2.00;;;12.00;70.00;;;;;;5077911;28;20037;-74
2021/11/01 20:05:37;;;;;;;4.63;1.55;;;11.80;72.20;;;;;;5004412;28;20846;-76
2021/11/01 20:11:19;;;;;;;3.78;1.70;;;11.80;72.40;;;;;;5008301;28;20026;-75
2021/11/01 21:25:50;;;;;;;3.50;1.60;;;12.10;73.20;;;;;;5089578;28;20172;-78
2021/11/01 21:28:16;;;;;;;3.00;1.45;;;12.10;73.00;;;;;;5063485;28;20047;-80
2021/11/01 21:30:42;;;;;;;4.20;1.75;;;12.00;73.00;;;;;;5059464;28;20382;-80
2021/11/01 21:33:09;;;;;;;6.03;2.17;;;12.00;73.20;;;;;;5079803;28;20039;-79
2021/11/01 21:35:44;;;;;;;7.05;2.50;;;12.00;73.10;;;;;;5072615;28;20051;-77
2021/11/01 21:38:09;;;;;;;5.22;1.88;;;11.90;72.90;;;;;;5074628;28;20020;-76
2021/11/01 21:40:35;;;;;;;7.70;2.05;;;12.00;73.50;;;;;;5088696;28;20503;-76
2021/11/01 21:43:01;;;;;;;7.28;1.98;;;12.00;73.00;;;;;;5065027;28;20040;-74
2021/11/01 21:45:26;;;;;;;5.65;1.80;;;12.00;73.40;;;;;;5077090;28;20040;-76
2021/11/01 21:47:52;;;;;;;7.47;2.20;;;12.00;73.50;;;;;;5083155;28;20040;-76
2021/11/01 21:50:18;;;;;;;3.38;1.40;;;12.00;73.20;;;;;;5074897;28;20032;-77
2021/11/01 21:52:44;;;;;;;4.30;1.70;;;12.00;73.20;;;;;;5083911;28;20063;-77
2021/11/01 21:55:10;;;;;;;8.55;3.35;;;12.00;72.70;;;;;;5082976;28;20074;-77
2021/11/01 22:00:17;;;;;;;7.25;2.03;;;11.90;73.30;;;;;;5084703;28;20024;-78
2021/11/01 22:24:25;;;;;;;5.18;1.50;;;11.40;73.80;;;;;;5078950;28;20016;-77
2021/11/01 22:43:00;;;;;;;2.80;1.10;;;11.50;73.80;;;;;;4972316;28;20065;-76
2021/11/01 22:59:08;;;;;;;3.80;1.33;;;11.30;74.50;;;;;;4958164;28;20159;-77
2021/11/01 23:01:40;;;;;;;2.75;1.35;;;11.30;74.30;;;;;;4969730;28;20049;-77
2021/11/01 23:33:53;;;;;;;1.88;1.10;;;11.10;74.70;;;;;;5007731;28;20032;-78
2021/11/01 23:36:19;;;;;;;4.53;1.10;;;11.10;74.60;;;;;;5082177;28;20020;-76
2021/11/01 23:38:45;;;;;;;3.15;1.10;;;11.10;74.90;;;;;;5088522;28;20039;-74
2021/11/01 23:41:11;;;;;;;3.50;1.10;;;11.10;74.70;;;;;;5090845;28;20500;-77
2021/11/01 23:43:37;;;;;;;4.05;0.93;;;11.10;75.00;;;;;;5072748;28;20579;-76
2021/11/01 23:46:03;;;;;;;2.30;1.10;;;11.00;75.40;;;;;;5089354;28;20400;-77
2021/11/01 23:48:29;;;;;;;3.08;0.95;;;11.00;73.90;;;;;;5088212;28;20107;-77
2021/11/01 23:50:55;;;;;;;2.15;0.88;;;11.00;74.40;;;;;;5088484;28;20111;-76
2021/11/01 23:56:11;;;;;;;4.00;1.05;;;10.90;75.00;;;;;;5011207;28;20038;-76
2021/11/01 23:58:38;;;;;;;2.30;0.70;;;10.90;74.80;;;;;;4995962;28;20434;-76
